createdAt,value
2019-03-03T00:01:24.137Z,68.71
2019-03-03T00:03:56.000Z,68.82
2019-03-03T00:06:27.046Z,69.15
2019-03-03T00:08:57.560Z,69.22
2019-03-03T00:11:28.126Z,69.21
2019-03-03T00:13:58.724Z,69.05
2019-03-03T00:21:58.240Z,69.17
2019-03-03T00:24:30.433Z,69.17
2019-03-03T00:27:00.939Z,69.22
2019-03-03T00:29:31.491Z,69.51
2019-03-03T00:32:01.916Z,69.34
2019-03-03T00:34:51.268Z,69.29
2019-03-03T00:37:40.629Z,69.34
2019-03-03T00:40:29.809Z,69.25
2019-03-03T00:43:07.695Z,69.57
2019-03-03T00:45:56.978Z,69.35
2019-03-03T00:48:46.137Z,69.79
2019-03-03T00:51:23.456Z,69.53
2019-03-03T00:54:11.463Z,69.63
2019-03-03T00:56:49.040Z,69.75
2019-03-03T00:59:38.142Z,69.58
2019-03-03T01:02:30.725Z,69.55
2019-03-03T01:05:31.621Z,69.51
2019-03-03T01:08:20.757Z,69.56
2019-03-03T01:11:32.267Z,69.53
2019-03-03T01:14:21.465Z,69.34
2019-03-03T01:17:10.707Z,69.42
2019-03-03T01:19:59.823Z,69.42
2019-03-03T01:22:48.962Z,69.70
2019-03-03T01:25:19.070Z,69.58
2019-03-03T01:27:49.172Z,69.53
2019-03-03T01:30:19.294Z,69.49
2019-03-03T01:32:49.407Z,69.56
2019-03-03T01:35:19.516Z,69.61
2019-03-03T01:37:49.690Z,69.61
2019-03-03T01:40:19.805Z,70.11
2019-03-03T01:42:51.906Z,69.92
2019-03-03T01:45:22.364Z,70.04
2019-03-03T01:47:52.821Z,69.94
2019-03-03T01:50:23.435Z,70.02
2019-03-03T01:55:43.356Z,69.92
2019-03-03T01:58:13.793Z,70.28
2019-03-03T02:00:44.969Z,70.12
2019-03-03T02:06:32.430Z,70.20
2019-03-03T02:09:03.032Z,70.12
2019-03-03T02:11:35.207Z,69.99
2019-03-03T02:14:05.675Z,70.11
2019-03-03T02:16:36.198Z,70.14
2019-03-03T02:19:06.749Z,70.17
2019-03-03T02:27:16.172Z,70.64
2019-03-03T02:29:46.684Z,70.45
2019-03-03T02:32:17.286Z,70.27
2019-03-03T02:34:47.995Z,70.25
2019-03-03T02:40:09.564Z,70.39
2019-03-03T02:42:40.071Z,70.60
2019-03-03T02:45:12.126Z,70.32
2019-03-03T02:47:42.894Z,70.41
2019-03-03T02:50:32.388Z,70.88
2019-03-03T02:53:03.047Z,70.83
2019-03-03T02:55:33.595Z,70.84
2019-03-03T02:58:04.074Z,70.66
2019-03-03T03:03:18.814Z,70.95
2019-03-03T03:06:08.244Z,70.96
2019-03-03T03:08:57.482Z,70.70
2019-03-03T03:11:46.911Z,70.64
2019-03-03T03:14:36.239Z,70.83
2019-03-03T03:17:23.142Z,70.64
2019-03-03T03:20:12.527Z,71.04
2019-03-03T03:23:01.794Z,70.97
2019-03-03T03:28:21.344Z,71.95
2019-03-03T03:31:10.605Z,72.08
2019-03-03T03:34:01.506Z,72.04
2019-03-03T03:36:47.302Z,72.00
2019-03-03T03:39:36.688Z,72.68
2019-03-03T03:42:26.264Z,73.95
2019-03-03T03:45:15.546Z,73.76
2019-03-03T03:48:04.858Z,73.59
2019-03-03T03:50:54.156Z,73.04
2019-03-03T03:53:43.621Z,73.28
2019-03-03T03:56:22.193Z,73.06
2019-03-03T03:59:11.599Z,74.43
2019-03-03T04:02:01.089Z,74.06
2019-03-03T04:04:50.346Z,74.58
2019-03-03T04:07:39.974Z,74.58
2019-03-03T04:10:17.481Z,74.26
2019-03-03T04:12:54.943Z,73.92
2019-03-03T04:15:44.219Z,74.66
2019-03-03T04:18:21.770Z,74.80
2019-03-03T04:21:11.173Z,74.29
2019-03-03T04:24:00.651Z,74.15
2019-03-03T04:26:49.993Z,75.84
2019-03-03T04:29:39.256Z,75.33
2019-03-03T04:32:28.592Z,76.10
2019-03-03T04:35:17.965Z,76.58
2019-03-03T04:38:07.317Z,76.22
2019-03-03T04:40:56.735Z,76.75
2019-03-03T04:43:42.108Z,76.33
2019-03-03T04:46:17.359Z,76.88
2019-03-03T04:49:07.027Z,76.03
2019-03-03T04:51:56.260Z,76.84
2019-03-03T04:54:45.634Z,76.28
2019-03-03T04:57:35.133Z,76.67
2019-03-03T05:03:26.949Z,75.51
2019-03-03T05:06:03.103Z,76.19
2019-03-03T05:08:52.254Z,76.45
2019-03-03T05:12:19.427Z,76.29
2019-03-03T05:18:06.004Z,76.59
2019-03-03T05:20:46.086Z,76.49
2019-03-03T05:23:23.398Z,76.51
2019-03-03T05:25:55.291Z,76.31
2019-03-03T05:28:25.531Z,76.24
2019-03-03T05:33:37.992Z,77.02
2019-03-03T05:36:08.251Z,77.08
2019-03-03T05:38:57.861Z,77.37
2019-03-03T05:41:28.460Z,77.66
2019-03-03T05:43:58.697Z,77.82
2019-03-03T05:46:29.300Z,78.12
2019-03-03T05:49:18.489Z,78.58
2019-03-03T05:51:48.725Z,78.93
2019-03-03T06:00:09.883Z,78.22
2019-03-03T06:05:25.840Z,77.70
2019-03-03T06:13:29.095Z,79.01
2019-03-03T06:18:52.899Z,79.20
2019-03-03T06:21:23.035Z,78.63
2019-03-03T06:23:53.271Z,78.89
2019-03-03T06:34:54.953Z,78.79
2019-03-03T06:37:27.859Z,78.10
2019-03-03T06:40:18.970Z,78.38
2019-03-03T06:43:06.396Z,77.69
2019-03-03T06:48:23.738Z,77.57
2019-03-03T06:54:05.001Z,78.37
2019-03-03T07:02:07.992Z,78.25
2019-03-03T07:05:13.250Z,78.44
2019-03-03T07:10:47.891Z,78.56
2019-03-03T07:13:18.484Z,79.11
2019-03-03T07:18:41.968Z,79.19
2019-03-03T07:21:12.312Z,79.09
2019-03-03T07:26:31.988Z,79.03
2019-03-03T07:32:11.139Z,79.45
2019-03-03T07:34:41.766Z,79.75
2019-03-03T07:37:12.420Z,79.62
2019-03-03T07:39:43.161Z,79.52
2019-03-03T07:42:15.132Z,79.47
2019-03-03T07:48:11.433Z,79.95
2019-03-03T07:50:42.048Z,79.88
2019-03-03T07:53:35.210Z,79.76
2019-03-03T07:56:05.641Z,79.70
2019-03-03T07:58:36.061Z,79.70
2019-03-03T08:01:06.516Z,79.88
2019-03-03T08:03:37.473Z,79.47
2019-03-03T08:06:08.057Z,79.57
2019-03-03T08:08:38.750Z,79.48
2019-03-03T08:11:09.577Z,79.48
2019-03-03T08:13:46.985Z,79.60
2019-03-03T08:16:37.860Z,79.94
2019-03-03T08:19:28.835Z,80.22
2019-03-03T08:27:23.901Z,80.44
2019-03-03T08:30:14.870Z,80.14
2019-03-03T08:32:45.893Z,80.26
2019-03-03T08:35:16.971Z,80.44
2019-03-03T08:38:07.913Z,80.38
2019-03-03T08:40:45.575Z,79.73
2019-03-03T08:43:45.603Z,79.44
2019-03-03T08:46:28.588Z,79.58
2019-03-03T08:49:38.385Z,80.04
2019-03-03T08:52:16.721Z,80.09
2019-03-03T08:55:06.249Z,80.20
2019-03-03T08:58:16.000Z,79.48
2019-03-03T09:06:31.615Z,79.75
2019-03-03T09:09:41.322Z,80.05
2019-03-03T09:12:30.879Z,80.13
2019-03-03T09:15:40.796Z,80.39
2019-03-03T09:18:44.049Z,80.54
2019-03-03T09:21:53.852Z,80.46
2019-03-03T09:25:05.021Z,80.65
2019-03-03T09:28:15.125Z,80.88
2019-03-03T09:31:27.231Z,80.75
2019-03-03T09:37:00.122Z,81.16
2019-03-03T09:40:09.994Z,81.05
2019-03-03T09:43:19.897Z,81.06
2019-03-03T09:46:20.012Z,80.98
2019-03-03T09:49:10.996Z,81.21
2019-03-03T10:00:30.760Z,81.32
2019-03-03T10:03:47.173Z,81.22
2019-03-03T10:06:42.281Z,81.42
2019-03-03T10:09:53.747Z,81.04
2019-03-03T10:12:44.547Z,81.02
2019-03-03T10:15:37.302Z,81.41
2019-03-03T10:18:29.791Z,81.54
2019-03-03T10:21:40.057Z,81.57
2019-03-03T10:24:33.077Z,81.44
2019-03-03T10:27:42.776Z,81.31
2019-03-03T10:30:56.212Z,81.24
2019-03-03T10:33:49.706Z,81.25
2019-03-03T10:40:02.978Z,80.96
2019-03-03T10:42:57.127Z,80.83
2019-03-03T10:52:14.366Z,80.54
2019-03-03T10:55:18.173Z,80.72
2019-03-03T11:04:21.310Z,80.95
2019-03-03T11:18:44.760Z,81.01
2019-03-03T11:24:57.054Z,81.54
2019-03-03T11:28:08.350Z,81.41
2019-03-03T11:33:53.409Z,81.09
2019-03-03T11:37:04.180Z,81.03
2019-03-03T11:43:13.639Z,81.14
2019-03-03T11:49:10.124Z,81.11
2019-03-03T11:55:15.429Z,80.89
2019-03-03T11:58:25.408Z,79.88
2019-03-03T12:04:19.058Z,80.00
2019-03-03T12:10:34.162Z,79.32
2019-03-03T12:16:38.697Z,79.56
2019-03-03T12:28:29.934Z,78.45
2019-03-03T12:31:19.290Z,78.12
2019-03-03T12:43:14.835Z,77.58
2019-03-03T12:48:47.207Z,78.22
2019-03-03T12:52:15.006Z,78.30
2019-03-03T12:55:15.367Z,78.06
2019-03-03T13:01:40.160Z,78.19
2019-03-03T13:04:52.091Z,78.00
2019-03-03T13:22:40.369Z,78.41
2019-03-03T13:28:26.868Z,77.10
2019-03-03T13:31:16.112Z,76.92
2019-03-03T13:34:06.976Z,76.55
2019-03-03T13:36:56.232Z,77.17
2019-03-03T13:45:01.656Z,75.41
2019-03-03T13:56:33.300Z,72.87
2019-03-03T13:59:24.009Z,71.38
2019-03-03T14:01:54.129Z,72.66
2019-03-03T14:04:24.278Z,70.15
2019-03-03T14:06:54.522Z,71.22
2019-03-03T14:09:24.831Z,71.03
2019-03-03T14:11:54.981Z,71.12
2019-03-03T14:14:25.082Z,69.59
2019-03-03T14:16:55.198Z,69.18
2019-03-03T14:19:25.336Z,69.34
2019-03-03T14:21:55.450Z,69.76
2019-03-03T14:24:25.564Z,69.54
2019-03-03T14:32:26.936Z,68.20
2019-03-03T14:34:57.114Z,70.03
2019-03-03T14:37:27.222Z,70.77
2019-03-03T14:43:07.195Z,69.46
2019-03-03T14:45:58.003Z,68.87
2019-03-03T14:48:28.295Z,69.20
2019-03-03T14:50:58.414Z,69.79
2019-03-03T14:53:28.536Z,69.76
2019-03-03T14:55:58.639Z,70.09
2019-03-03T14:58:28.772Z,70.70
2019-03-03T15:00:58.886Z,70.50
2019-03-03T15:03:29.072Z,70.02
2019-03-03T15:05:59.233Z,70.56
2019-03-03T15:08:31.025Z,70.42
2019-03-03T15:11:01.112Z,70.09
2019-03-03T15:13:31.233Z,70.38
2019-03-03T15:16:01.329Z,69.80
2019-03-03T15:18:31.452Z,69.20
2019-03-03T15:21:01.581Z,69.06
2019-03-03T15:26:23.012Z,69.95
2019-03-03T15:31:37.944Z,69.82
2019-03-03T15:34:28.075Z,70.15
2019-03-03T15:39:42.786Z,69.38
2019-03-03T15:42:33.605Z,69.86
2019-03-03T15:45:15.761Z,70.02
2019-03-03T15:48:06.721Z,70.76
2019-03-03T15:50:37.021Z,69.66
2019-03-03T15:53:07.172Z,69.17
2019-03-03T15:55:56.306Z,69.71
2019-03-03T15:58:55.415Z,69.35
2019-03-03T16:01:24.894Z,69.75
2019-03-03T16:07:10.313Z,69.60
2019-03-03T16:09:40.593Z,69.62
2019-03-03T16:12:15.671Z,69.88
2019-03-03T16:14:45.825Z,69.38
2019-03-03T16:20:18.524Z,69.62
2019-03-03T16:31:26.668Z,69.95
2019-03-03T16:33:57.087Z,70.53
2019-03-03T16:39:32.317Z,70.28
2019-03-03T16:42:02.438Z,70.76
2019-03-03T16:44:32.583Z,70.67
2019-03-03T16:47:02.796Z,70.62
2019-03-03T16:49:32.929Z,71.05
2019-03-03T16:52:41.315Z,70.66
2019-03-03T16:55:16.989Z,71.16
2019-03-03T17:01:05.396Z,70.96
2019-03-03T17:03:41.386Z,70.88
2019-03-03T17:06:30.677Z,71.03
2019-03-03T17:09:00.782Z,71.13
2019-03-03T17:20:29.072Z,71.91
2019-03-03T17:22:59.255Z,72.39
2019-03-03T17:25:41.222Z,72.56
2019-03-03T17:28:23.231Z,72.54
2019-03-03T17:30:53.386Z,72.52
2019-03-03T17:33:23.593Z,72.65
2019-03-03T17:35:56.225Z,72.77
2019-03-03T17:38:26.455Z,72.98
2019-03-03T17:43:51.514Z,73.13
2019-03-03T17:46:23.285Z,73.13
2019-03-03T17:48:53.609Z,73.35
2019-03-03T17:54:05.854Z,73.24
2019-03-03T17:56:35.994Z,73.28
2019-03-03T17:59:06.214Z,73.39
2019-03-03T18:04:28.149Z,73.45
2019-03-03T18:06:58.956Z,73.34
2019-03-03T18:12:12.194Z,73.55
2019-03-03T18:14:42.512Z,73.46
2019-03-03T18:26:25.547Z,73.77
2019-03-03T18:28:56.345Z,73.43
2019-03-03T18:37:18.024Z,73.43
2019-03-03T18:39:48.124Z,73.34
2019-03-03T18:42:37.370Z,73.48
2019-03-03T18:48:19.863Z,73.53
2019-03-03T18:50:51.959Z,73.65
2019-03-03T18:53:22.635Z,73.59
2019-03-03T18:55:53.443Z,73.92
2019-03-03T19:01:41.722Z,73.85
2019-03-03T19:04:11.862Z,73.92
2019-03-03T19:06:42.041Z,73.84
2019-03-03T19:09:17.632Z,73.95
2019-03-03T19:15:16.910Z,73.93
2019-03-03T19:17:59.022Z,74.01
2019-03-03T19:20:31.297Z,74.06
2019-03-03T19:23:01.465Z,73.85
2019-03-03T19:25:31.624Z,73.89
2019-03-03T19:28:01.786Z,73.87
2019-03-03T19:30:31.890Z,74.01
2019-03-03T19:33:10.997Z,74.31
2019-03-03T19:35:41.126Z,74.88
2019-03-03T19:38:11.273Z,75.30
2019-03-03T19:40:41.371Z,75.19
2019-03-03T19:43:11.584Z,75.03
2019-03-03T19:45:41.760Z,74.81
2019-03-03T19:48:12.022Z,74.68
2019-03-03T19:50:42.203Z,74.52
2019-03-03T19:53:14.048Z,74.46
2019-03-03T19:55:45.832Z,74.34
2019-03-03T19:58:55.666Z,74.23
2019-03-03T20:01:31.723Z,74.37
2019-03-03T20:04:20.070Z,74.42
2019-03-03T20:07:02.018Z,74.28
2019-03-03T20:09:32.272Z,74.25
2019-03-03T20:12:02.487Z,74.24
2019-03-03T20:14:32.724Z,74.27
2019-03-03T20:17:25.496Z,74.21
2019-03-03T20:19:55.603Z,74.19
2019-03-03T20:22:25.875Z,74.29
2019-03-03T20:24:56.127Z,74.21
2019-03-03T20:27:26.261Z,74.10
2019-03-03T20:29:56.513Z,74.14
2019-03-03T20:32:26.591Z,74.12
2019-03-03T20:34:56.866Z,74.00
2019-03-03T20:37:26.969Z,74.14
2019-03-03T20:39:57.686Z,74.13
2019-03-03T20:42:48.661Z,74.45
2019-03-03T20:51:16.427Z,74.42
2019-03-03T20:54:19.288Z,74.53
2019-03-03T20:57:08.478Z,74.36
2019-03-03T21:02:27.199Z,74.35
2019-03-03T21:04:58.922Z,74.54
2019-03-03T21:07:29.125Z,74.62
2019-03-03T21:09:59.492Z,74.72
2019-03-03T21:12:29.643Z,75.50
2019-03-03T21:17:41.221Z,75.24
2019-03-03T21:20:13.202Z,75.17
2019-03-03T21:22:43.406Z,75.08
2019-03-03T21:25:17.349Z,75.07
2019-03-03T21:27:48.296Z,75.05
2019-03-03T21:30:22.744Z,74.78
2019-03-03T21:32:52.898Z,75.11
2019-03-03T21:35:23.003Z,74.64
2019-03-03T21:37:53.234Z,74.76
2019-03-03T21:40:23.436Z,75.23
2019-03-03T21:42:53.613Z,74.85
2019-03-03T21:45:27.897Z,74.83
2019-03-03T21:51:00.056Z,74.50
2019-03-03T21:53:30.229Z,74.25
2019-03-03T21:56:00.359Z,74.10
2019-03-03T21:58:30.469Z,74.12
2019-03-03T22:01:00.607Z,74.02
2019-03-03T22:03:30.698Z,74.08
2019-03-03T22:06:00.804Z,74.01
2019-03-03T22:08:49.906Z,73.93
2019-03-03T22:11:19.988Z,74.02
2019-03-03T22:13:50.096Z,74.00
2019-03-03T22:16:20.203Z,74.06
2019-03-03T22:18:50.367Z,74.18
2019-03-03T22:21:20.526Z,74.11
2019-03-03T22:23:52.777Z,74.18
2019-03-03T22:26:41.947Z,74.43
2019-03-03T22:29:12.607Z,74.48
2019-03-03T22:31:42.732Z,74.29
2019-03-03T22:37:08.777Z,74.40
2019-03-03T22:39:38.911Z,74.25
2019-03-03T22:42:09.012Z,74.24
2019-03-03T22:44:51.583Z,74.14
2019-03-03T22:47:21.695Z,74.10
2019-03-03T22:49:51.794Z,74.00
2019-03-03T22:52:27.430Z,73.95
2019-03-03T22:54:57.531Z,73.96
2019-03-03T22:57:27.647Z,73.86
2019-03-03T22:59:57.735Z,74.00
2019-03-03T23:02:27.849Z,73.86
2019-03-03T23:05:19.767Z,74.09
2019-03-03T23:08:27.947Z,73.93
2019-03-03T23:11:21.619Z,74.08
2019-03-03T23:14:29.825Z,73.96
2019-03-03T23:17:23.001Z,74.14
2019-03-03T23:20:31.185Z,74.10
2019-03-03T23:23:39.383Z,74.64
2019-03-03T23:26:16.354Z,74.73
2019-03-03T23:29:00.374Z,74.36
2019-03-03T23:31:30.489Z,74.71
2019-03-03T23:34:00.584Z,74.91
2019-03-03T23:36:30.692Z,74.74
2019-03-03T23:39:00.803Z,75.28
2019-03-03T23:41:32.501Z,74.87
2019-03-03T23:44:02.614Z,74.61
2019-03-03T23:46:32.771Z,74.55
2019-03-03T23:54:47.342Z,74.71
2019-03-03T23:57:17.524Z,74.70
2019-03-03T23:59:47.617Z,74.42
